createdAt,value
2023-05-09T00:02:15.176Z,101787.19
2023-05-09T00:04:42.428Z,101785.56
2023-05-09T00:07:10.530Z,101784.00
2023-05-09T00:09:37.610Z,101786.56
2023-05-09T00:12:05.328Z,101788.34
2023-05-09T00:14:33.491Z,101792.09
2023-05-09T00:17:00.728Z,101785.81
2023-05-09T00:19:27.824Z,101787.88
2023-05-09T00:21:54.989Z,101784.06
2023-05-09T00:24:22.083Z,101782.63
2023-05-09T00:26:49.157Z,101783.00
2023-05-09T00:29:16.233Z,101779.06
2023-05-09T00:31:43.354Z,101785.78
2023-05-09T00:34:10.905Z,101782.84
2023-05-09T00:36:37.981Z,101782.50
2023-05-09T00:39:05.529Z,101792.16
2023-05-09T00:41:32.585Z,101786.25
2023-05-09T00:43:59.650Z,101787.31
2023-05-09T00:46:26.941Z,101792.06
2023-05-09T00:48:54.227Z,101788.63
2023-05-09T00:51:21.846Z,101792.84
2023-05-09T00:53:48.977Z,101782.22
2023-05-09T00:56:16.415Z,101777.69
2023-05-09T00:58:43.660Z,101777.59
2023-05-09T01:01:11.332Z,101777.59
2023-05-09T01:03:41.584Z,101770.75
2023-05-09T01:06:52.509Z,101774.16
2023-05-09T01:09:55.745Z,101772.56
2023-05-09T01:12:49.721Z,101773.94
2023-05-09T01:16:06.251Z,101768.50
2023-05-09T01:19:29.326Z,101766.09
2023-05-09T01:21:59.424Z,101762.41
2023-05-09T01:25:12.986Z,101758.78
2023-05-09T01:28:13.276Z,101749.88
2023-05-09T01:30:46.200Z,101757.91
2023-05-09T01:33:19.210Z,101754.41
2023-05-09T01:35:57.389Z,101753.78
2023-05-09T01:38:27.803Z,101753.31
2023-05-09T01:40:56.934Z,101753.81
2023-05-09T01:43:29.463Z,101754.66
2023-05-09T01:45:58.515Z,101745.28
2023-05-09T01:48:28.123Z,101748.72
2023-05-09T01:50:57.456Z,101745.56
2023-05-09T01:53:27.475Z,101742.94
2023-05-09T01:55:56.964Z,101742.25
2023-05-09T01:58:25.527Z,101740.66
2023-05-09T02:00:52.983Z,101739.16
2023-05-09T02:03:21.901Z,101737.72
2023-05-09T02:05:50.377Z,101744.03
2023-05-09T02:08:21.192Z,101744.44
2023-05-09T02:10:49.843Z,101746.13
2023-05-09T02:13:16.982Z,101745.38
2023-05-09T02:15:45.228Z,101748.16
2023-05-09T02:18:13.692Z,101742.63
2023-05-09T02:20:41.053Z,101743.09
2023-05-09T02:23:08.412Z,101743.78
2023-05-09T02:25:35.722Z,101741.25
2023-05-09T02:28:04.548Z,101741.41
2023-05-09T02:30:40.410Z,101746.91
2023-05-09T02:33:12.454Z,101752.28
2023-05-09T02:35:44.684Z,101749.59
2023-05-09T02:38:13.130Z,101748.44
2023-05-09T02:40:42.262Z,101744.97
2023-05-09T02:43:09.664Z,101743.31
2023-05-09T02:45:36.956Z,101742.94
2023-05-09T02:48:06.878Z,101749.84
2023-05-09T02:50:35.569Z,101747.84
2023-05-09T02:53:02.595Z,101752.84
2023-05-09T02:55:29.736Z,101741.75
2023-05-09T02:58:09.233Z,101742.09
2023-05-09T03:00:40.271Z,101738.19
2023-05-09T03:03:07.392Z,101744.06
2023-05-09T03:05:34.619Z,101739.03
2023-05-09T03:08:01.661Z,101747.13
2023-05-09T03:10:28.740Z,101741.66
2023-05-09T03:12:55.885Z,101739.31
2023-05-09T03:15:23.767Z,101736.09
2023-05-09T03:17:50.856Z,101734.47
2023-05-09T03:20:18.097Z,101734.28
2023-05-09T03:22:45.357Z,101729.97
2023-05-09T03:25:12.627Z,101726.28
2023-05-09T03:27:39.959Z,101729.03
2023-05-09T03:30:08.138Z,101721.56
2023-05-09T03:32:35.295Z,101727.13
2023-05-09T03:35:02.447Z,101727.78
2023-05-09T03:37:29.915Z,101723.59
2023-05-09T03:39:57.113Z,101724.41
2023-05-09T03:42:24.178Z,101731.31
2023-05-09T03:44:51.367Z,101735.03
2023-05-09T03:47:18.396Z,101730.81
2023-05-09T03:49:46.277Z,101728.81
2023-05-09T03:52:13.951Z,101726.59
2023-05-09T03:54:41.001Z,101733.41
2023-05-09T03:57:08.121Z,101730.47
2023-05-09T03:59:35.222Z,101738.50
2023-05-09T04:02:02.967Z,101728.44
2023-05-09T04:04:30.232Z,101724.50
2023-05-09T04:06:58.493Z,101726.75
2023-05-09T04:09:25.885Z,101717.28
2023-05-09T04:11:52.992Z,101715.88
2023-05-09T04:14:20.115Z,101713.34
2023-05-09T04:16:47.198Z,101717.88
2023-05-09T04:19:14.477Z,101709.94
2023-05-09T04:21:41.688Z,101707.88
2023-05-09T04:24:08.768Z,101698.81
2023-05-09T04:26:38.294Z,101699.19
2023-05-09T04:29:05.456Z,101707.13
2023-05-09T04:31:32.807Z,101704.00
2023-05-09T04:34:00.000Z,101707.03
2023-05-09T04:36:27.716Z,101707.03
2023-05-09T04:38:55.078Z,101700.91
2023-05-09T04:41:23.028Z,101697.47
2023-05-09T04:43:50.105Z,101692.00
2023-05-09T04:46:17.268Z,101693.25
2023-05-09T04:48:44.896Z,101700.00
2023-05-09T04:51:12.076Z,101702.72
2023-05-09T04:53:39.308Z,101706.81
2023-05-09T04:56:06.699Z,101704.59
2023-05-09T04:58:38.234Z,101708.59
2023-05-09T05:01:06.211Z,101705.97
2023-05-09T05:03:33.663Z,101708.94
2023-05-09T05:06:01.060Z,101701.06
2023-05-09T05:08:28.088Z,101694.22
2023-05-09T05:10:55.228Z,101695.22
2023-05-09T05:13:22.447Z,101700.84
2023-05-09T05:15:49.949Z,101695.47
2023-05-09T05:18:17.093Z,101693.78
2023-05-09T05:20:44.212Z,101694.59
2023-05-09T05:23:11.266Z,101700.59
2023-05-09T05:25:38.815Z,101711.66
2023-05-09T05:28:06.002Z,101702.06
2023-05-09T05:30:34.363Z,101704.78
2023-05-09T05:33:02.175Z,101708.97
2023-05-09T05:35:29.412Z,101706.06
2023-05-09T05:37:59.887Z,101701.28
2023-05-09T05:40:26.968Z,101696.13
2023-05-09T05:42:54.422Z,101700.34
2023-05-09T05:45:24.103Z,101695.38
2023-05-09T05:47:51.290Z,101700.19
2023-05-09T05:50:18.844Z,101696.28
2023-05-09T05:52:45.968Z,101704.06
2023-05-09T05:55:13.454Z,101690.34
2023-05-09T05:57:41.112Z,101678.44
2023-05-09T06:00:11.173Z,101677.69
2023-05-09T06:02:38.867Z,101674.22
2023-05-09T06:05:07.160Z,101666.84
2023-05-09T06:07:34.334Z,101656.84
2023-05-09T06:10:12.139Z,101661.44
2023-05-09T06:12:39.238Z,101655.78
2023-05-09T06:15:07.425Z,101655.28
2023-05-09T06:17:39.746Z,101653.50
2023-05-09T06:20:07.805Z,101652.13
2023-05-09T06:22:35.009Z,101651.69
2023-05-09T06:25:02.294Z,101638.09
2023-05-09T06:27:29.530Z,101648.50
2023-05-09T06:29:57.134Z,101657.06
2023-05-09T06:32:31.791Z,101650.94
2023-05-09T06:34:58.824Z,101626.34
2023-05-09T06:37:26.336Z,101642.03
2023-05-09T06:39:54.492Z,101633.59
2023-05-09T06:42:24.740Z,101631.25
2023-05-09T06:44:51.840Z,101623.47
2023-05-09T06:47:19.463Z,101624.19
2023-05-09T06:49:49.076Z,101615.88
2023-05-09T06:52:16.331Z,101618.47
2023-05-09T06:54:47.411Z,101612.34
2023-05-09T06:57:23.646Z,101607.75
2023-05-09T06:59:50.859Z,101609.75
2023-05-09T07:02:17.890Z,101604.97
2023-05-09T07:04:45.388Z,101596.81
2023-05-09T07:07:12.667Z,101600.72
2023-05-09T07:09:39.807Z,101581.06
2023-05-09T07:12:24.389Z,101580.06
2023-05-09T07:14:51.730Z,101586.06
2023-05-09T07:17:23.031Z,101567.97
2023-05-09T07:19:51.674Z,101567.53
2023-05-09T07:22:18.885Z,101566.69
2023-05-09T07:24:46.540Z,101557.06
2023-05-09T07:27:13.889Z,101552.34
2023-05-09T07:29:41.179Z,101556.31
2023-05-09T07:32:09.213Z,101545.84
2023-05-09T07:34:36.776Z,101540.25
2023-05-09T07:37:04.082Z,101544.72
2023-05-09T07:39:31.292Z,101536.56
2023-05-09T07:41:58.495Z,101528.09
2023-05-09T07:44:25.762Z,101526.13
2023-05-09T07:46:55.328Z,101524.94
2023-05-09T07:49:23.015Z,101514.84
2023-05-09T07:51:54.606Z,101517.25
2023-05-09T07:54:24.203Z,101506.84
2023-05-09T07:56:51.384Z,101511.41
2023-05-09T07:59:21.900Z,101503.16
2023-05-09T08:01:50.648Z,101501.97
2023-05-09T08:04:17.785Z,101498.13
2023-05-09T08:06:44.856Z,101499.28
2023-05-09T08:09:13.370Z,101495.84
2023-05-09T08:11:40.804Z,101500.78
2023-05-09T08:14:08.219Z,101492.28
2023-05-09T08:16:38.947Z,101487.72
2023-05-09T08:19:08.550Z,101483.63
2023-05-09T08:21:40.663Z,101486.09
2023-05-09T08:24:09.638Z,101477.25
2023-05-09T08:26:36.750Z,101476.63
2023-05-09T08:29:03.943Z,101475.50
2023-05-09T08:31:33.144Z,101489.44
2023-05-09T08:34:00.963Z,101468.75
2023-05-09T08:36:28.224Z,101483.75
2023-05-09T08:38:55.471Z,101463.59
2023-05-09T08:41:29.498Z,101463.09
2023-05-09T08:43:56.884Z,101472.72
2023-05-09T08:46:39.567Z,101477.56
2023-05-09T08:49:07.284Z,101472.41
2023-05-09T08:51:35.934Z,101463.31
2023-05-09T08:54:03.902Z,101470.50
2023-05-09T08:56:34.786Z,101463.91
2023-05-09T08:59:01.964Z,101461.31
2023-05-09T09:01:30.628Z,101460.31
2023-05-09T09:03:58.465Z,101456.13
2023-05-09T09:06:28.164Z,101455.66
2023-05-09T09:09:00.262Z,101457.69
2023-05-09T09:11:30.242Z,101443.72
2023-05-09T09:14:12.784Z,101451.84
2023-05-09T09:16:44.632Z,101447.34
2023-05-09T09:19:20.280Z,101443.34
2023-05-09T09:21:53.809Z,101424.94
2023-05-09T09:24:23.473Z,101422.63
2023-05-09T09:26:51.934Z,101427.41
2023-05-09T09:29:23.149Z,101432.16
2023-05-09T09:31:55.147Z,101424.59
2023-05-09T09:34:23.992Z,101423.97
2023-05-09T09:36:51.546Z,101432.63
2023-05-09T09:39:18.994Z,101424.84
2023-05-09T09:41:46.113Z,101417.16
2023-05-09T09:44:19.940Z,101422.13
2023-05-09T09:46:53.731Z,101407.69
2023-05-09T09:49:35.296Z,101406.19
2023-05-09T09:52:02.858Z,101399.19
2023-05-09T09:54:31.708Z,101401.88
2023-05-09T09:56:58.943Z,101393.25
2023-05-09T09:59:27.841Z,101401.66
2023-05-09T10:02:13.998Z,101397.47
2023-05-09T10:04:43.349Z,101393.75
2023-05-09T10:07:14.524Z,101384.75
2023-05-09T10:09:44.102Z,101375.88
2023-05-09T10:12:12.027Z,101381.75
2023-05-09T10:14:43.191Z,101381.91
2023-05-09T10:17:15.191Z,101362.31
2023-05-09T10:19:53.075Z,101371.63
2023-05-09T10:22:20.907Z,101373.31
2023-05-09T10:25:13.112Z,101360.25
2023-05-09T10:27:45.921Z,101360.75
2023-05-09T10:30:22.589Z,101352.06
2023-05-09T10:33:18.356Z,101352.94
2023-05-09T10:35:48.065Z,101352.22
2023-05-09T10:38:16.250Z,101346.81
2023-05-09T10:40:49.666Z,101353.72
2023-05-09T10:43:21.567Z,101350.59
2023-05-09T10:45:49.030Z,101347.44
2023-05-09T10:48:16.746Z,101334.75
2023-05-09T10:50:45.088Z,101337.09
2023-05-09T10:53:17.140Z,101325.81
2023-05-09T10:56:01.939Z,101331.91
2023-05-09T10:58:33.616Z,101333.38
2023-05-09T11:01:03.737Z,101334.97
2023-05-09T11:03:59.003Z,101322.16
2023-05-09T11:06:53.993Z,101308.75
2023-05-09T11:09:39.146Z,101312.50
2023-05-09T11:12:14.080Z,101299.00
2023-05-09T11:14:46.934Z,101299.28
2023-05-09T11:17:21.931Z,101279.00
2023-05-09T11:19:52.080Z,101290.66
2023-05-09T11:22:37.667Z,101284.81
2023-05-09T11:25:14.401Z,101284.03
2023-05-09T11:27:51.090Z,101271.41
2023-05-09T11:30:20.543Z,101275.50
2023-05-09T11:32:59.707Z,101274.38
2023-05-09T11:35:27.902Z,101263.41
2023-05-09T11:38:06.634Z,101252.41
2023-05-09T11:40:35.790Z,101252.53
2023-05-09T11:43:03.497Z,101257.69
2023-05-09T11:45:34.773Z,101239.97
2023-05-09T11:48:08.739Z,101237.34
2023-05-09T11:50:41.088Z,101233.00
2023-05-09T11:53:12.733Z,101218.16
2023-05-09T11:55:44.779Z,101224.56
2023-05-09T11:58:12.113Z,101214.25
2023-05-09T12:00:46.016Z,101210.47
2023-05-09T12:03:14.152Z,101203.44
2023-05-09T12:05:42.647Z,101198.75
2023-05-09T12:08:09.805Z,101214.31
2023-05-09T12:10:40.164Z,101203.59
2023-05-09T12:13:07.440Z,101192.91
2023-05-09T12:15:42.232Z,101197.81
2023-05-09T12:18:09.385Z,101191.78
2023-05-09T12:20:53.123Z,101182.41
2023-05-09T12:23:20.412Z,101173.38
2023-05-09T12:25:56.277Z,101176.00
2023-05-09T12:28:26.555Z,101164.53
2023-05-09T12:30:54.457Z,101171.09
2023-05-09T12:33:22.302Z,101162.25
2023-05-09T12:36:07.647Z,101154.72
2023-05-09T12:38:35.004Z,101155.63
2023-05-09T12:42:00.530Z,101151.72
2023-05-09T12:44:29.691Z,101148.47
2023-05-09T12:47:03.315Z,101138.88
2023-05-09T12:49:32.381Z,101147.19
2023-05-09T12:52:03.008Z,101138.09
2023-05-09T12:54:32.467Z,101136.66
2023-05-09T12:56:59.835Z,101133.75
2023-05-09T12:59:30.630Z,101129.69
2023-05-09T13:02:01.986Z,101118.53
2023-05-09T13:04:29.871Z,101123.84
2023-05-09T13:06:59.885Z,101118.09
2023-05-09T13:09:28.089Z,101109.88
2023-05-09T13:11:55.397Z,101108.34
2023-05-09T13:14:23.659Z,101108.88
2023-05-09T13:16:51.522Z,101112.94
2023-05-09T13:19:21.980Z,101110.09
2023-05-09T13:21:49.059Z,101109.75
2023-05-09T13:24:16.191Z,101100.75
2023-05-09T13:26:44.576Z,101091.72
2023-05-09T13:29:11.665Z,101095.81
2023-05-09T13:31:38.740Z,101091.50
2023-05-09T13:34:05.982Z,101093.25
2023-05-09T13:36:34.178Z,101087.59
2023-05-09T13:39:14.383Z,101076.28
2023-05-09T13:41:41.940Z,101068.84
2023-05-09T13:44:09.376Z,101069.28
2023-05-09T13:46:57.697Z,101069.28
2023-05-09T13:49:25.102Z,101061.25
2023-05-09T13:51:53.846Z,101063.81
2023-05-09T13:54:25.411Z,101055.63
2023-05-09T13:56:52.675Z,101043.91
2023-05-09T13:59:20.111Z,101039.25
2023-05-09T14:01:47.203Z,101021.16
2023-05-09T14:04:14.541Z,101015.31
2023-05-09T14:06:48.242Z,101018.94
2023-05-09T14:09:15.943Z,101027.84
2023-05-09T14:11:43.625Z,101018.19
2023-05-09T14:14:14.510Z,101032.84
2023-05-09T14:16:41.775Z,101010.09
2023-05-09T14:19:08.926Z,101008.88
2023-05-09T14:21:36.592Z,101001.69
2023-05-09T14:24:04.359Z,100993.28
2023-05-09T14:26:31.481Z,100995.09
2023-05-09T14:28:58.865Z,100989.13
2023-05-09T14:31:26.629Z,100984.91
2023-05-09T14:33:53.793Z,100983.88
2023-05-09T14:36:23.938Z,100985.91
2023-05-09T14:38:51.225Z,100968.91
2023-05-09T14:41:20.270Z,100966.75
2023-05-09T14:43:49.029Z,100973.91
2023-05-09T14:46:16.471Z,100965.22
2023-05-09T14:48:46.120Z,100956.19
2023-05-09T14:51:14.243Z,100953.53
2023-05-09T14:53:44.897Z,100948.91
2023-05-09T14:56:12.268Z,100951.69
2023-05-09T14:58:39.338Z,100954.78
2023-05-09T15:01:06.532Z,100951.38
2023-05-09T15:03:36.416Z,100950.00
2023-05-09T15:06:03.956Z,100936.84
2023-05-09T15:08:31.334Z,100940.69
2023-05-09T15:10:58.714Z,100945.28
2023-05-09T15:13:26.002Z,100935.78
2023-05-09T15:15:53.536Z,100935.06
2023-05-09T15:18:21.560Z,100928.63
2023-05-09T15:20:48.795Z,100921.22
2023-05-09T15:23:18.633Z,100918.88
2023-05-09T15:25:46.226Z,100913.72
2023-05-09T15:28:13.404Z,100911.19
2023-05-09T15:30:41.540Z,100916.00
2023-05-09T15:33:09.148Z,100910.88
2023-05-09T15:35:37.893Z,100902.03
2023-05-09T15:38:05.003Z,100895.13
2023-05-09T15:40:32.063Z,100890.50
2023-05-09T15:42:59.583Z,100886.81
2023-05-09T15:45:27.009Z,100886.81
2023-05-09T15:47:54.587Z,100886.56
2023-05-09T15:50:22.197Z,100890.22
2023-05-09T15:52:49.546Z,100884.88
2023-05-09T15:55:19.942Z,100877.75
2023-05-09T15:57:48.174Z,100879.25
2023-05-09T16:00:17.484Z,100876.91
2023-05-09T16:02:45.105Z,100881.13
2023-05-09T16:05:12.937Z,100869.22
2023-05-09T16:07:45.771Z,100863.50
2023-05-09T16:10:14.361Z,100864.69
2023-05-09T16:12:41.724Z,100873.53
2023-05-09T16:15:09.909Z,100861.84
2023-05-09T16:17:37.217Z,100866.06
2023-05-09T16:20:05.235Z,100856.22
2023-05-09T16:22:34.593Z,100856.16
2023-05-09T16:25:01.761Z,100857.72
2023-05-09T16:27:28.910Z,100846.31
2023-05-09T16:29:56.071Z,100848.47
2023-05-09T16:32:23.150Z,100847.78
2023-05-09T16:34:50.564Z,100844.91
2023-05-09T16:37:18.989Z,100851.22
2023-05-09T16:39:46.441Z,100849.09
2023-05-09T16:42:13.573Z,100857.91
2023-05-09T16:44:40.717Z,100841.63
2023-05-09T16:47:07.830Z,100850.31
2023-05-09T16:49:38.729Z,100838.41
2023-05-09T16:52:05.895Z,100840.56
2023-05-09T16:54:32.949Z,100836.63
2023-05-09T16:57:03.204Z,100838.88
2023-05-09T16:59:30.761Z,100844.59
2023-05-09T17:01:58.013Z,100841.88
2023-05-09T17:04:25.690Z,100827.84
2023-05-09T17:06:55.395Z,100824.81
2023-05-09T17:09:22.586Z,100833.66
2023-05-09T17:11:49.638Z,100829.53
2023-05-09T17:14:19.465Z,100831.66
2023-05-09T17:16:46.590Z,100825.03
2023-05-09T17:19:14.320Z,100821.03
2023-05-09T17:21:41.878Z,100817.00
2023-05-09T17:24:10.087Z,100809.22
2023-05-09T17:26:38.613Z,100818.47
2023-05-09T17:29:06.223Z,100814.53
2023-05-09T17:31:33.398Z,100810.13
2023-05-09T17:34:04.257Z,100814.00
2023-05-09T17:36:31.760Z,100808.53
2023-05-09T17:38:58.774Z,100818.13
2023-05-09T17:41:25.912Z,100821.69
2023-05-09T17:43:56.337Z,100803.50
2023-05-09T17:46:23.918Z,100815.03
2023-05-09T17:48:51.459Z,100810.41
2023-05-09T17:51:18.705Z,100803.41
2023-05-09T17:53:47.838Z,100812.75
2023-05-09T17:56:14.875Z,100799.75
2023-05-09T17:58:42.149Z,100808.47
2023-05-09T18:01:09.673Z,100802.38
2023-05-09T18:03:36.850Z,100800.13
2023-05-09T18:06:04.451Z,100797.06
2023-05-09T18:08:31.564Z,100796.09
2023-05-09T18:10:58.887Z,100797.47
2023-05-09T18:13:26.058Z,100792.44
2023-05-09T18:15:55.035Z,100786.38
2023-05-09T18:18:22.988Z,100791.78
2023-05-09T18:20:50.206Z,100790.13
2023-05-09T18:23:17.401Z,100783.25
2023-05-09T18:25:46.811Z,100783.94
2023-05-09T18:28:14.004Z,100788.31
2023-05-09T18:30:41.168Z,100786.00
2023-05-09T18:33:08.649Z,100797.31
2023-05-09T18:35:35.778Z,100795.47
2023-05-09T18:38:03.025Z,100794.47
2023-05-09T18:40:30.556Z,100789.34
2023-05-09T18:42:57.578Z,100792.66
2023-05-09T18:45:25.041Z,100794.28
2023-05-09T18:47:52.227Z,100792.66
2023-05-09T18:50:19.635Z,100793.59
2023-05-09T18:52:46.691Z,100793.06
2023-05-09T18:55:19.609Z,100793.81
2023-05-09T18:57:47.482Z,100792.94
2023-05-09T19:00:16.059Z,100795.06
2023-05-09T19:02:43.357Z,100790.25
2023-05-09T19:05:10.809Z,100787.25
2023-05-09T19:07:38.633Z,100788.59
2023-05-09T19:10:08.270Z,100792.00
2023-05-09T19:12:35.374Z,100784.81
2023-05-09T19:15:03.109Z,100785.00
2023-05-09T19:17:30.426Z,100789.31
2023-05-09T19:19:57.498Z,100786.88
2023-05-09T19:22:24.563Z,100783.16
2023-05-09T19:24:52.025Z,100784.69
2023-05-09T19:27:19.123Z,100783.28
2023-05-09T19:29:47.512Z,100780.69
2023-05-09T19:32:17.884Z,100782.19
2023-05-09T19:34:44.954Z,100776.84
2023-05-09T19:37:12.126Z,100777.28
2023-05-09T19:39:39.193Z,100777.47
2023-05-09T19:42:06.444Z,100777.56
2023-05-09T19:44:33.531Z,100765.03
2023-05-09T19:47:05.023Z,100768.56
2023-05-09T19:49:32.647Z,100765.03
2023-05-09T19:51:59.694Z,100771.22
2023-05-09T19:54:30.490Z,100762.53
2023-05-09T19:56:57.550Z,100762.97
2023-05-09T19:59:24.702Z,100766.03
2023-05-09T20:01:51.797Z,100764.13
2023-05-09T20:04:21.748Z,100775.13
2023-05-09T20:06:48.992Z,100769.59
2023-05-09T20:09:20.712Z,100766.69
2023-05-09T20:11:56.878Z,100765.06
2023-05-09T20:14:26.030Z,100753.66
2023-05-09T20:16:53.113Z,100766.72
2023-05-09T20:19:23.325Z,100759.66
2023-05-09T20:21:50.669Z,100756.97
2023-05-09T20:24:18.018Z,100760.75
2023-05-09T20:26:45.195Z,100752.47
2023-05-09T20:29:12.293Z,100750.47
2023-05-09T20:31:39.626Z,100743.59
2023-05-09T20:34:10.440Z,100748.88
2023-05-09T20:36:38.162Z,100744.31
2023-05-09T20:39:05.220Z,100737.25
2023-05-09T20:41:34.845Z,100738.50
2023-05-09T20:44:06.282Z,100735.81
2023-05-09T20:46:34.345Z,100742.00
2023-05-09T20:49:02.542Z,100735.31
2023-05-09T20:51:31.512Z,100730.69
2023-05-09T20:53:59.829Z,100725.56
2023-05-09T20:56:28.560Z,100731.81
2023-05-09T20:58:59.796Z,100725.78
2023-05-09T21:01:27.193Z,100726.59
2023-05-09T21:03:54.332Z,100716.59
2023-05-09T21:06:21.556Z,100717.56
2023-05-09T21:08:48.617Z,100710.09
2023-05-09T21:11:15.799Z,100707.63
2023-05-09T21:13:42.828Z,100708.97
2023-05-09T21:16:09.907Z,100706.34
2023-05-09T21:18:36.953Z,100698.19
2023-05-09T21:21:08.874Z,100700.78
2023-05-09T21:23:36.070Z,100700.00
2023-05-09T21:26:03.212Z,100700.63
2023-05-09T21:28:30.362Z,100696.38
2023-05-09T21:31:01.479Z,100692.25
2023-05-09T21:33:28.914Z,100699.06
2023-05-09T21:35:56.098Z,100696.94
2023-05-09T21:38:23.374Z,100685.34
2023-05-09T21:40:51.409Z,100679.97
2023-05-09T21:43:19.481Z,100683.25
2023-05-09T21:45:46.603Z,100680.00
2023-05-09T21:48:13.892Z,100680.09
2023-05-09T21:50:43.559Z,100677.94
2023-05-09T21:53:10.799Z,100671.56
2023-05-09T21:55:37.882Z,100674.31
2023-05-09T21:58:04.960Z,100677.09
2023-05-09T22:00:32.038Z,100673.16
2023-05-09T22:02:59.529Z,100672.66
2023-05-09T22:05:26.650Z,100666.41
2023-05-09T22:07:53.679Z,100668.94
2023-05-09T22:10:20.791Z,100665.06
2023-05-09T22:12:47.992Z,100664.22
2023-05-09T22:15:15.133Z,100667.41
2023-05-09T22:17:45.427Z,100665.81
2023-05-09T22:20:13.076Z,100659.69
2023-05-09T22:22:40.183Z,100663.94
2023-05-09T22:25:07.773Z,100671.59
2023-05-09T22:27:34.873Z,100668.78
2023-05-09T22:30:02.751Z,100670.59
2023-05-09T22:32:29.847Z,100666.78
2023-05-09T22:34:56.991Z,100667.69
2023-05-09T22:37:24.029Z,100669.34
2023-05-09T22:39:54.066Z,100664.53
2023-05-09T22:42:21.156Z,100670.03
2023-05-09T22:44:49.715Z,100667.25
2023-05-09T22:47:16.933Z,100662.03
2023-05-09T22:49:45.739Z,100665.81
2023-05-09T22:52:13.155Z,100665.72
2023-05-09T22:54:40.534Z,100654.78
2023-05-09T22:57:07.658Z,100656.22
2023-05-09T22:59:34.859Z,100656.16
2023-05-09T23:02:01.963Z,100648.09
2023-05-09T23:04:31.406Z,100653.78
2023-05-09T23:06:58.510Z,100648.47
2023-05-09T23:09:25.666Z,100642.56
2023-05-09T23:11:52.782Z,100646.56
2023-05-09T23:14:22.150Z,100649.91
2023-05-09T23:16:49.252Z,100643.56
2023-05-09T23:19:16.572Z,100649.38
2023-05-09T23:21:43.638Z,100645.50
2023-05-09T23:24:10.707Z,100647.03
2023-05-09T23:26:37.806Z,100645.75
2023-05-09T23:29:04.888Z,100629.97
2023-05-09T23:31:32.004Z,100637.31
2023-05-09T23:33:59.880Z,100640.41
2023-05-09T23:36:26.954Z,100633.06
2023-05-09T23:38:54.168Z,100632.50
2023-05-09T23:41:21.942Z,100625.69
2023-05-09T23:43:48.994Z,100636.09
2023-05-09T23:46:16.231Z,100628.19
2023-05-09T23:48:43.372Z,100632.91
2023-05-09T23:51:10.425Z,100634.69
2023-05-09T23:53:37.533Z,100636.78
2023-05-09T23:56:06.621Z,100629.44
2023-05-09T23:58:33.785Z,100624.59
